Time;durP1;ratioP1;P1;durP2;ratioP2;P2;SDS_P1;SDS_P2;PMS_P1;PMS_P2;Temp;Humidity;BMP_temperature;BMP_pressure;BME280_temperature;BME280_humidity;BME280_pressure;Samples;Min_cycle;Max_cycle;Signal;HPM_P1;HPM_P2
2021/09/18 04:02:47;;;;;;;13.90;11.07;;;13.50;99.90;;;;;;4990084;28;20248;-72
2021/09/18 04:05:14;;;;;;;18.00;12.10;;;13.50;99.90;;;;;;4986392;28;21007;-73
2021/09/18 04:07:40;;;;;;;18.90;11.83;;;13.60;99.90;;;;;;4974829;28;20468;-72
2021/09/18 04:10:08;;;;;;;15.67;11.77;;;13.60;99.90;;;;;;4975165;28;20518;-73
2021/09/18 04:12:34;;;;;;;21.13;12.17;;;13.60;99.90;;;;;;4963230;28;20492;-73
2021/09/18 04:15:01;;;;;;;13.90;10.23;;;13.60;99.90;;;;;;4965551;28;20460;-72
2021/09/18 04:17:28;;;;;;;15.23;11.40;;;13.60;99.90;;;;;;4970468;28;20874;-72
2021/09/18 04:19:56;;;;;;;17.37;12.10;;;13.60;99.90;;;;;;4946737;28;20534;-71
2021/09/18 04:22:22;;;;;;;16.60;12.10;;;13.60;99.90;;;;;;4973482;28;21148;-73
2021/09/18 04:24:49;;;;;;;15.97;12.83;;;13.70;99.90;;;;;;4945801;28;20470;-73
2021/09/18 04:27:16;;;;;;;16.17;12.03;;;13.70;99.90;;;;;;4935532;29;20474;-72
2021/09/18 04:29:42;;;;;;;17.77;11.77;;;13.70;99.90;;;;;;4956696;28;20473;-72
2021/09/18 04:32:09;;;;;;;19.33;11.73;;;13.70;99.90;;;;;;4966264;28;20492;-73
2021/09/18 04:34:36;;;;;;;18.10;13.23;;;13.70;99.90;;;;;;4970387;28;20457;-72
2021/09/18 04:37:04;;;;;;;16.70;11.93;;;13.70;99.90;;;;;;4937581;28;20478;-72
2021/09/18 04:39:31;;;;;;;15.17;11.57;;;13.80;99.90;;;;;;4939936;28;20472;-72
2021/09/18 04:41:57;;;;;;;16.70;10.90;;;13.80;99.90;;;;;;4951262;28;20998;-74
2021/09/18 04:44:24;;;;;;;21.00;11.67;;;13.80;99.90;;;;;;4954301;28;20465;-72
2021/09/18 04:46:50;;;;;;;15.50;11.40;;;13.80;99.90;;;;;;4940779;28;20525;-72
2021/09/18 04:49:17;;;;;;;16.70;11.80;;;13.80;99.90;;;;;;4950608;28;21117;-72
2021/09/18 04:51:44;;;;;;;15.43;10.70;;;13.80;99.90;;;;;;4960745;28;20622;-71
2021/09/18 04:54:12;;;;;;;16.60;10.70;;;13.80;99.90;;;;;;4960051;28;20526;-72
2021/09/18 04:56:38;;;;;;;19.47;11.87;;;13.80;99.90;;;;;;4966877;28;20853;-71
2021/09/18 04:59:05;;;;;;;22.40;12.50;;;13.80;99.90;;;;;;4973128;28;20471;-72
2021/09/18 05:01:31;;;;;;;18.70;11.63;;;13.80;99.90;;;;;;4955982;28;20547;-73
2021/09/18 05:03:58;;;;;;;18.87;12.57;;;13.70;99.90;;;;;;4942414;28;20850;-72
2021/09/18 05:06:25;;;;;;;18.10;12.73;;;13.80;99.90;;;;;;4958815;28;20460;-72
2021/09/18 05:08:51;;;;;;;18.23;11.55;;;13.80;99.90;;;;;;4946135;28;20468;-71
2021/09/18 05:11:19;;;;;;;14.53;10.63;;;13.80;99.90;;;;;;4973302;28;20283;-71
2021/09/18 05:13:46;;;;;;;18.20;11.10;;;13.80;99.90;;;;;;4963487;28;20511;-72
2021/09/18 05:16:13;;;;;;;18.97;10.73;;;13.80;99.90;;;;;;4960401;28;20928;-72
2021/09/18 05:18:40;;;;;;;15.40;11.13;;;13.80;99.90;;;;;;4967383;28;20823;-71
2021/09/18 05:21:06;;;;;;;16.43;9.50;;;13.80;99.90;;;;;;4959306;28;20886;-71
2021/09/18 05:23:33;;;;;;;16.50;11.67;;;13.80;99.90;;;;;;4964612;28;20465;-71
2021/09/18 05:26:00;;;;;;;15.00;10.40;;;13.80;99.90;;;;;;4955804;28;20465;-73
2021/09/18 05:28:28;;;;;;;16.03;10.70;;;13.90;99.90;;;;;;4947422;28;20797;-73
2021/09/18 05:30:54;;;;;;;15.70;11.73;;;13.90;99.90;;;;;;4951433;28;20496;-73
2021/09/18 05:33:21;;;;;;;17.20;9.70;;;13.90;99.90;;;;;;4953836;28;20468;-73
2021/09/18 05:35:47;;;;;;;16.83;10.13;;;13.90;99.90;;;;;;4968301;28;20464;-73
2021/09/18 05:38:14;;;;;;;13.97;9.93;;;14.00;99.90;;;;;;4947895;28;20477;-73
2021/09/18 05:40:42;;;;;;;17.53;12.37;;;14.00;99.90;;;;;;4973049;28;20496;-73
2021/09/18 05:43:09;;;;;;;13.20;10.80;;;14.00;99.90;;;;;;4964454;28;20457;-72
2021/09/18 05:45:37;;;;;;;13.30;10.80;;;14.00;99.90;;;;;;4973157;28;20472;-73
2021/09/18 05:48:05;;;;;;;18.33;11.93;;;14.00;99.90;;;;;;4958904;28;20455;-73
2021/09/18 05:50:31;;;;;;;17.57;10.20;;;14.10;99.90;;;;;;4977011;28;20495;-73
2021/09/18 05:52:58;;;;;;;13.17;9.93;;;14.10;99.90;;;;;;4968740;28;20486;-73
2021/09/18 05:55:25;;;;;;;17.33;11.17;;;14.10;99.90;;;;;;4940853;28;20958;-73
2021/09/18 05:57:51;;;;;;;14.10;10.20;;;14.10;99.90;;;;;;4956340;28;20464;-73
2021/09/18 06:00:18;;;;;;;11.93;9.57;;;14.20;99.90;;;;;;4960876;28;20469;-72
2021/09/18 06:02:47;;;;;;;12.80;10.20;;;14.20;99.90;;;;;;4972103;28;20468;-73
2021/09/18 06:05:14;;;;;;;13.40;10.13;;;14.30;99.90;;;;;;4948629;28;20492;-71
2021/09/18 06:07:40;;;;;;;18.30;10.90;;;14.30;99.90;;;;;;4956464;28;20795;-71
2021/09/18 06:10:08;;;;;;;16.97;10.97;;;14.40;99.90;;;;;;4947344;28;20465;-72
2021/09/18 06:12:35;;;;;;;15.30;11.43;;;14.50;99.90;;;;;;4963435;28;20488;-71
2021/09/18 06:15:02;;;;;;;17.07;10.77;;;14.50;99.90;;;;;;4958523;28;20610;-71
2021/09/18 06:17:28;;;;;;;17.57;10.47;;;14.50;99.90;;;;;;4953669;28;20465;-71
2021/09/18 06:19:56;;;;;;;11.40;8.87;;;14.50;99.90;;;;;;4961064;28;20738;-71
2021/09/18 06:22:23;;;;;;;16.73;10.70;;;14.60;99.90;;;;;;4969753;28;21001;-71
2021/09/18 06:24:50;;;;;;;13.87;9.40;;;14.70;99.90;;;;;;4976708;28;20538;-71
2021/09/18 06:27:16;;;;;;;16.43;11.80;;;14.80;99.90;;;;;;4968629;28;20456;-71
2021/09/18 06:29:43;;;;;;;13.73;10.40;;;14.90;99.90;;;;;;4976129;28;20526;-71
2021/09/18 06:32:09;;;;;;;13.23;10.27;;;15.00;99.90;;;;;;4961435;28;20563;-71
2021/09/18 06:34:37;;;;;;;14.17;10.00;;;15.00;99.90;;;;;;4952192;28;20464;-71
2021/09/18 06:37:06;;;;;;;13.90;10.80;;;15.00;99.90;;;;;;4970301;28;20460;-74
2021/09/18 06:39:34;;;;;;;15.10;10.20;;;15.10;99.90;;;;;;4957241;28;20471;-73
2021/09/18 06:42:01;;;;;;;11.23;9.33;;;15.00;99.90;;;;;;4976285;28;21070;-71
2021/09/18 06:44:28;;;;;;;10.60;9.60;;;15.10;99.90;;;;;;4966262;28;20516;-71
2021/09/18 06:46:54;;;;;;;11.93;9.30;;;15.10;99.90;;;;;;4956818;28;20485;-71
2021/09/18 06:49:21;;;;;;;9.03;8.13;;;15.20;99.90;;;;;;4973507;28;20471;-71
2021/09/18 06:51:47;;;;;;;9.97;9.03;;;15.20;99.90;;;;;;4960557;28;21048;-73
2021/09/18 06:54:15;;;;;;;8.10;7.50;;;15.30;99.90;;;;;;4957107;28;20531;-70
2021/09/18 06:56:42;;;;;;;7.93;7.13;;;15.30;99.90;;;;;;4957090;28;20477;-69
2021/09/18 06:59:09;;;;;;;10.60;7.53;;;15.40;99.90;;;;;;4958668;28;20912;-70
2021/09/18 07:01:35;;;;;;;9.00;8.10;;;15.50;99.90;;;;;;4974798;28;21007;-70
2021/09/18 07:04:02;;;;;;;8.73;7.53;;;15.50;99.90;;;;;;4976204;28;20464;-70
2021/09/18 07:06:29;;;;;;;8.30;7.40;;;15.60;99.90;;;;;;4971470;28;20460;-70
2021/09/18 07:08:55;;;;;;;6.60;6.10;;;15.80;99.90;;;;;;4956463;28;20964;-70
2021/09/18 07:11:24;;;;;;;8.03;7.27;;;15.80;99.90;;;;;;4957562;28;20481;-70
2021/09/18 07:13:50;;;;;;;6.50;6.00;;;15.90;99.90;;;;;;4956130;28;20461;-70
2021/09/18 07:16:17;;;;;;;6.37;5.80;;;16.00;99.90;;;;;;4956815;28;20528;-70
2021/09/18 07:18:44;;;;;;;6.40;5.87;;;16.00;99.90;;;;;;4948899;28;20470;-72
2021/09/18 07:21:10;;;;;;;6.57;6.17;;;16.10;99.90;;;;;;4962808;28;20492;-73
2021/09/18 07:23:37;;;;;;;6.37;5.77;;;16.20;99.90;;;;;;4966687;28;20519;-72
2021/09/18 07:26:04;;;;;;;6.03;5.60;;;16.20;99.90;;;;;;4971907;28;20530;-72
2021/09/18 07:28:34;;;;;;;5.83;5.33;;;16.10;99.90;;;;;;4940783;28;20461;-72
2021/09/18 07:31:00;;;;;;;5.70;5.20;;;16.20;99.90;;;;;;4949926;28;20523;-72
2021/09/18 07:33:27;;;;;;;5.87;5.40;;;16.30;99.90;;;;;;4966150;28;20484;-73
2021/09/18 07:35:54;;;;;;;6.70;6.30;;;16.40;99.90;;;;;;4955755;28;20508;-73
2021/09/18 07:38:21;;;;;;;5.73;5.23;;;16.50;99.90;;;;;;4955930;28;20838;-73
2021/09/18 07:40:47;;;;;;;5.80;5.23;;;16.50;99.90;;;;;;4948845;28;20484;-73
2021/09/18 07:43:14;;;;;;;4.60;4.40;;;16.50;99.90;;;;;;4956585;28;20464;-73
2021/09/18 07:45:42;;;;;;;4.43;4.13;;;16.70;99.90;;;;;;4955709;28;20485;-73
2021/09/18 07:48:08;;;;;;;4.03;3.83;;;16.80;99.90;;;;;;4962871;28;20468;-73
2021/09/18 07:50:35;;;;;;;4.33;4.17;;;16.80;99.90;;;;;;4955770;28;20535;-70
2021/09/18 07:53:02;;;;;;;4.40;4.20;;;16.90;99.90;;;;;;4962826;28;20476;-71
2021/09/18 07:55:29;;;;;;;4.07;3.87;;;17.00;99.90;;;;;;4963949;28;20533;-70
2021/09/18 07:57:56;;;;;;;3.30;3.10;;;17.00;99.90;;;;;;4970675;28;20479;-70
2021/09/18 08:00:23;;;;;;;3.17;3.07;;;17.00;99.90;;;;;;4974131;28;20468;-70
2021/09/18 08:02:52;;;;;;;3.67;3.47;;;17.00;99.90;;;;;;4957490;28;20460;-70
2021/09/18 08:05:19;;;;;;;3.90;3.57;;;17.00;99.90;;;;;;4964014;28;20456;-70
2021/09/18 08:07:45;;;;;;;3.00;2.90;;;17.00;99.90;;;;;;4958225;28;20872;-70
2021/09/18 08:10:14;;;;;;;3.63;3.43;;;17.10;99.90;;;;;;4958440;28;21025;-71
2021/09/18 08:12:41;;;;;;;3.70;3.23;;;17.10;99.90;;;;;;4964064;28;20785;-71
2021/09/18 08:15:08;;;;;;;2.83;2.73;;;17.10;99.90;;;;;;4967113;28;20530;-70
2021/09/18 08:17:36;;;;;;;2.67;2.57;;;17.30;99.90;;;;;;4955330;28;20455;-70
2021/09/18 08:20:05;;;;;;;2.77;2.77;;;17.40;99.90;;;;;;4968352;28;20519;-71
2021/09/18 08:22:32;;;;;;;2.60;2.50;;;17.30;99.90;;;;;;4939675;28;20529;-70
2021/09/18 08:24:59;;;;;;;2.90;2.77;;;17.40;99.90;;;;;;4953449;28;20527;-70
2021/09/18 08:27:25;;;;;;;2.70;2.70;;;17.50;99.90;;;;;;4965366;28;20467;-70
2021/09/18 08:29:52;;;;;;;2.90;2.80;;;17.50;99.90;;;;;;4953680;28;20469;-71
2021/09/18 08:32:18;;;;;;;2.23;2.23;;;17.60;99.90;;;;;;4954395;28;20646;-70
2021/09/18 08:34:45;;;;;;;2.60;2.50;;;17.40;99.90;;;;;;4966048;28;20468;-71
2021/09/18 08:37:13;;;;;;;2.57;2.53;;;17.20;99.90;;;;;;4968445;28;20535;-70
2021/09/18 08:39:40;;;;;;;2.33;2.13;;;17.20;99.90;;;;;;4960662;28;20457;-70
2021/09/18 08:42:09;;;;;;;1.67;1.67;;;17.20;99.90;;;;;;4954264;28;20484;-71
2021/09/18 08:44:36;;;;;;;1.10;1.10;;;17.30;99.90;;;;;;4963959;28;20530;-70
2021/09/18 08:47:04;;;;;;;1.50;1.50;;;17.40;99.90;;;;;;4973980;28;20468;-71
2021/09/18 08:49:30;;;;;;;1.20;1.20;;;17.40;99.90;;;;;;4965085;28;20468;-70
2021/09/18 08:51:57;;;;;;;3.50;1.47;;;17.40;99.90;;;;;;4955559;28;20492;-71
2021/09/18 08:54:25;;;;;;;1.33;1.33;;;17.40;99.90;;;;;;4962275;28;20484;-71
2021/09/18 08:56:52;;;;;;;1.30;1.30;;;17.40;99.90;;;;;;4973597;28;20459;-71
2021/09/18 08:59:18;;;;;;;2.37;1.50;;;17.40;99.90;;;;;;4965138;28;20649;-70
2021/09/18 09:01:45;;;;;;;1.27;1.27;;;17.50;99.90;;;;;;4955508;28;20547;-70
2021/09/18 09:04:12;;;;;;;1.17;1.17;;;17.40;99.90;;;;;;4954162;28;20511;-69
2021/09/18 09:06:43;;;;;;;1.40;1.40;;;17.20;99.90;;;;;;4958875;28;20460;-71
2021/09/18 09:09:10;;;;;;;2.10;1.40;;;16.90;99.90;;;;;;4970070;28;20456;-72
2021/09/18 09:11:48;;;;;;;1.17;1.17;;;16.50;99.90;;;;;;4961508;28;20476;-72
2021/09/18 09:14:14;;;;;;;1.23;1.23;;;16.40;99.90;;;;;;4971775;28;20969;-72
2021/09/18 09:16:56;;;;;;;1.20;1.20;;;16.30;99.90;;;;;;4961650;28;20464;-71
2021/09/18 09:19:23;;;;;;;1.30;1.30;;;16.30;99.90;;;;;;4937645;28;20477;-72
2021/09/18 09:21:52;;;;;;;1.47;1.20;;;16.20;99.90;;;;;;4935030;29;20575;-71
2021/09/18 09:24:21;;;;;;;1.00;1.00;;;16.20;99.90;;;;;;4945574;28;20886;-72
2021/09/18 09:27:08;;;;;;;1.40;1.30;;;16.30;99.90;;;;;;4949542;28;20805;-71
2021/09/18 09:29:44;;;;;;;1.43;1.33;;;16.40;99.90;;;;;;4962401;28;20498;-72
2021/09/18 09:32:26;;;;;;;0.87;0.87;;;16.50;99.90;;;;;;4947756;28;20488;-73
2021/09/18 09:34:53;;;;;;;0.80;0.80;;;16.60;99.90;;;;;;4965724;28;20494;-73
2021/09/18 09:37:20;;;;;;;1.47;1.47;;;16.70;99.90;;;;;;4954047;28;20954;-73
2021/09/18 09:39:52;;;;;;;9.63;3.50;;;16.80;99.90;;;;;;4952404;28;20996;-73
2021/09/18 09:42:27;;;;;;;8.10;2.00;;;16.80;99.90;;;;;;4953083;28;20552;-73
2021/09/18 09:44:55;;;;;;;1.13;1.13;;;17.00;99.90;;;;;;4946417;28;20469;-73
2021/09/18 09:47:23;;;;;;;5.70;2.10;;;17.10;99.90;;;;;;4948534;28;20467;-72
2021/09/18 09:49:51;;;;;;;6.23;2.93;;;17.30;99.90;;;;;;4940672;28;20461;-72
2021/09/18 09:52:21;;;;;;;1.37;1.30;;;17.50;99.90;;;;;;4934077;29;21065;-72
2021/09/18 09:54:48;;;;;;;1.00;1.00;;;17.60;99.90;;;;;;4935156;29;20526;-72
2021/09/18 09:57:15;;;;;;;0.87;0.87;;;17.60;99.90;;;;;;4953747;28;20509;-71
2021/09/18 09:59:44;;;;;;;1.13;1.10;;;17.60;99.90;;;;;;4939778;28;20548;-73
2021/09/18 10:02:12;;;;;;;0.90;0.90;;;17.60;99.90;;;;;;4947927;28;20501;-72
2021/09/18 10:04:40;;;;;;;0.90;0.90;;;17.60;99.90;;;;;;4955851;28;20510;-72
2021/09/18 10:07:08;;;;;;;1.17;1.17;;;17.70;99.90;;;;;;4967388;28;20869;-72
2021/09/18 10:09:36;;;;;;;1.23;1.20;;;17.70;99.90;;;;;;4959698;28;20463;-71
2021/09/18 10:12:04;;;;;;;0.80;0.80;;;17.80;99.90;;;;;;4957499;28;20885;-72
2021/09/18 10:14:31;;;;;;;1.03;1.00;;;17.80;99.90;;;;;;4954173;28;20531;-70
2021/09/18 10:17:01;;;;;;;1.17;1.07;;;17.80;99.90;;;;;;4937025;28;20549;-70
2021/09/18 10:19:53;;;;;;;2.60;0.90;;;17.70;99.90;;;;;;4944837;28;20574;-70
2021/09/18 10:25:11;;;;;;;2.20;1.30;;;17.60;99.90;;;;;;4948399;28;20488;-74
2021/09/18 10:27:38;;;;;;;0.97;0.97;;;17.70;99.90;;;;;;4958381;28;20459;-71
2021/09/18 10:30:29;;;;;;;1.10;1.10;;;17.70;99.90;;;;;;4963266;28;20457;-71
2021/09/18 10:32:57;;;;;;;1.20;1.20;;;17.80;99.90;;;;;;4947742;28;20584;-70
2021/09/18 10:35:24;;;;;;;0.93;0.93;;;17.80;99.90;;;;;;4944687;28;20544;-70
2021/09/18 10:37:51;;;;;;;0.90;0.90;;;17.90;99.90;;;;;;4954940;28;20477;-72
2021/09/18 10:40:18;;;;;;;3.30;1.40;;;17.80;99.90;;;;;;4948881;29;20464;-71
2021/09/18 10:42:46;;;;;;;0.80;0.80;;;17.80;99.90;;;;;;4960886;28;20461;-71
2021/09/18 10:45:15;;;;;;;1.47;1.27;;;17.80;99.90;;;;;;4956219;28;20945;-71
2021/09/18 10:47:44;;;;;;;0.80;0.80;;;17.80;99.90;;;;;;4961992;28;20955;-70
2021/09/18 10:50:40;;;;;;;1.10;1.00;;;17.90;99.90;;;;;;4950421;28;20505;-71
2021/09/18 10:53:11;;;;;;;1.13;1.13;;;18.10;99.90;;;;;;4954063;28;20486;-73
2021/09/18 10:55:51;;;;;;;1.00;1.00;;;18.10;99.90;;;;;;4956445;28;20480;-71
2021/09/18 10:58:18;;;;;;;0.70;0.70;;;18.30;99.90;;;;;;4948252;28;20958;-69
2021/09/18 11:00:54;;;;;;;0.83;0.83;;;18.50;99.90;;;;;;4962956;28;21009;-70
2021/09/18 11:03:46;;;;;;;0.80;0.80;;;18.70;99.90;;;;;;4947651;29;20516;-70
2021/09/18 11:06:37;;;;;;;0.40;0.40;;;18.80;99.90;;;;;;4968014;28;20492;-69
2021/09/18 11:09:05;;;;;;;1.47;0.50;;;18.80;99.90;;;;;;4964391;28;20461;-70
2021/09/18 11:11:31;;;;;;;1.20;1.20;;;18.80;99.90;;;;;;4938047;28;20552;-69
2021/09/18 11:14:01;;;;;;;2.00;0.70;;;18.70;99.90;;;;;;4960817;28;20500;-71
2021/09/18 11:16:32;;;;;;;1.27;1.23;;;18.50;99.90;;;;;;4956567;28;20524;-72
2021/09/18 11:19:02;;;;;;;1.80;1.40;;;18.30;99.90;;;;;;4960713;28;20466;-71
2021/09/18 11:21:35;;;;;;;1.47;1.47;;;18.20;99.90;;;;;;4955880;28;20694;-69
2021/09/18 11:24:20;;;;;;;0.73;0.50;;;18.10;99.90;;;;;;4964347;28;20851;-70
2021/09/18 11:26:48;;;;;;;1.13;0.57;;;18.00;99.90;;;;;;4951965;28;20604;-70
2021/09/18 11:29:19;;;;;;;0.50;0.50;;;17.90;99.90;;;;;;4948901;28;20463;-70
2021/09/18 11:32:10;;;;;;;1.40;1.40;;;18.00;99.90;;;;;;4955167;28;20572;-69
2021/09/18 11:34:38;;;;;;;2.80;2.70;;;18.00;99.90;;;;;;4938326;29;20497;-69
2021/09/18 11:37:07;;;;;;;2.00;1.90;;;18.00;99.90;;;;;;4955497;28;20571;-70
2021/09/18 11:39:44;;;;;;;8.60;7.90;;;18.10;99.90;;;;;;4943574;29;20460;-71
2021/09/18 11:42:21;;;;;;;6.33;5.73;;;18.10;99.90;;;;;;4937347;28;20969;-69
2021/09/18 11:44:49;;;;;;;2.70;2.60;;;18.20;99.90;;;;;;4936078;29;20465;-69
2021/09/18 11:47:22;;;;;;;1.20;1.20;;;18.20;99.90;;;;;;4952419;28;20473;-69
2021/09/18 11:49:49;;;;;;;0.40;0.40;;;18.20;99.90;;;;;;4955701;28;20467;-69
2021/09/18 11:52:16;;;;;;;0.50;0.50;;;18.20;99.90;;;;;;4955027;28;20849;-69
2021/09/18 11:54:44;;;;;;;0.70;0.33;;;18.20;99.90;;;;;;4955515;28;20493;-70
2021/09/18 11:57:13;;;;;;;0.27;0.27;;;18.20;99.90;;;;;;4955340;28;20468;-70
2021/09/18 11:59:40;;;;;;;0.57;0.57;;;18.20;99.90;;;;;;4955497;28;20576;-71
2021/09/18 12:02:07;;;;;;;0.63;0.63;;;18.40;99.90;;;;;;4955044;28;20503;-71
2021/09/18 12:04:45;;;;;;;0.60;0.60;;;18.50;99.90;;;;;;4955258;28;20465;-71
2021/09/18 12:07:13;;;;;;;0.60;0.60;;;18.60;99.90;;;;;;4955449;28;20468;-71
2021/09/18 12:09:41;;;;;;;0.37;0.37;;;18.70;99.90;;;;;;4940039;28;20848;-71
2021/09/18 12:12:09;;;;;;;1.70;0.80;;;18.80;99.90;;;;;;4935258;29;20493;-69
2021/09/18 12:14:38;;;;;;;0.70;0.70;;;18.80;99.90;;;;;;4935658;29;20512;-71
2021/09/18 12:17:12;;;;;;;2.60;2.40;;;18.80;99.90;;;;;;4935943;29;20470;-70
2021/09/18 12:19:40;;;;;;;1.97;1.87;;;18.70;99.90;;;;;;4935828;29;20468;-71
2021/09/18 12:22:07;;;;;;;2.20;2.10;;;18.60;99.90;;;;;;4935429;29;20970;-71
2021/09/18 12:24:37;;;;;;;2.07;1.97;;;18.40;99.90;;;;;;4935419;29;20481;-70
2021/09/18 12:27:24;;;;;;;0.90;0.90;;;18.50;99.90;;;;;;4935863;29;20485;-70
2021/09/18 12:29:55;;;;;;;1.10;1.10;;;18.30;99.90;;;;;;4935131;29;21014;-72
2021/09/18 12:32:22;;;;;;;1.20;1.10;;;18.30;99.90;;;;;;4935608;29;20493;-71
2021/09/18 12:34:49;;;;;;;1.00;1.00;;;18.30;99.90;;;;;;4935106;28;20529;-70
2021/09/18 12:37:17;;;;;;;0.83;0.83;;;18.30;99.90;;;;;;4935689;29;20556;-69
2021/09/18 12:39:44;;;;;;;0.70;0.70;;;18.30;99.90;;;;;;4935607;29;20568;-69
2021/09/18 12:42:11;;;;;;;1.10;1.00;;;18.40;99.90;;;;;;4934924;29;20494;-69
2021/09/18 12:44:41;;;;;;;1.13;1.03;;;18.50;99.90;;;;;;4935226;29;20461;-69
2021/09/18 12:47:21;;;;;;;1.07;1.07;;;18.60;99.90;;;;;;4934915;28;21001;-69
2021/09/18 12:49:48;;;;;;;1.40;1.13;;;18.60;99.90;;;;;;4935527;29;20461;-69
2021/09/18 12:52:15;;;;;;;1.13;1.10;;;18.60;99.90;;;;;;4934822;29;20489;-69
2021/09/18 12:54:43;;;;;;;1.00;1.00;;;18.60;99.90;;;;;;4935428;29;20500;-69
2021/09/18 12:57:10;;;;;;;1.00;1.00;;;18.50;99.90;;;;;;4934495;28;20552;-69
2021/09/18 12:59:42;;;;;;;0.97;0.93;;;18.40;99.90;;;;;;4934497;29;20476;-69
2021/09/18 13:02:09;;;;;;;3.30;1.60;;;18.30;99.90;;;;;;4934838;29;20529;-69
2021/09/18 13:04:37;;;;;;;1.37;1.37;;;18.20;99.90;;;;;;4935327;29;20520;-69
2021/09/18 13:07:05;;;;;;;1.00;1.00;;;18.30;99.90;;;;;;4954237;29;20476;-69
2021/09/18 13:09:33;;;;;;;1.40;1.40;;;18.30;99.90;;;;;;4954624;28;20481;-70
2021/09/18 13:12:02;;;;;;;1.17;1.17;;;18.30;99.90;;;;;;4954769;28;20524;-69
2021/09/18 13:14:33;;;;;;;1.13;1.13;;;18.30;99.90;;;;;;4953294;28;20500;-69
2021/09/18 13:17:04;;;;;;;1.10;1.10;;;18.30;99.90;;;;;;4954148;28;20471;-69
2021/09/18 13:19:46;;;;;;;1.00;1.00;;;18.20;99.90;;;;;;4954150;28;20476;-69
2021/09/18 13:22:14;;;;;;;1.70;1.50;;;18.30;99.90;;;;;;4954129;28;20634;-69
2021/09/18 13:24:40;;;;;;;1.70;1.60;;;18.30;99.90;;;;;;4954256;28;20464;-69
2021/09/18 13:27:07;;;;;;;1.37;1.37;;;18.30;99.90;;;;;;4954055;28;20972;-70
2021/09/18 13:29:34;;;;;;;1.00;1.00;;;18.40;99.90;;;;;;4953770;28;20504;-69
2021/09/18 13:32:02;;;;;;;1.10;1.10;;;18.30;99.90;;;;;;4954100;28;20557;-70
2021/09/18 13:34:29;;;;;;;2.10;1.47;;;18.20;99.90;;;;;;4954053;28;20559;-71
2021/09/18 13:36:55;;;;;;;1.50;1.50;;;18.20;99.90;;;;;;4945368;28;20536;-71
2021/09/18 13:39:22;;;;;;;1.13;1.13;;;18.30;99.90;;;;;;4934520;29;20572;-71
2021/09/18 13:41:50;;;;;;;1.60;1.50;;;18.20;99.90;;;;;;4935125;29;20544;-70
2021/09/18 13:44:16;;;;;;;1.40;1.30;;;18.20;99.90;;;;;;4933578;28;20571;-71
2021/09/18 13:46:43;;;;;;;1.60;1.27;;;18.20;99.90;;;;;;4935277;29;20521;-72
2021/09/18 13:49:11;;;;;;;1.70;1.60;;;18.10;99.90;;;;;;4936282;29;20466;-71
2021/09/18 13:51:38;;;;;;;1.40;1.30;;;18.10;99.90;;;;;;4934959;29;20992;-71
2021/09/18 13:54:06;;;;;;;1.73;1.57;;;18.10;99.90;;;;;;4934185;28;20489;-71
2021/09/18 13:56:32;;;;;;;1.40;1.40;;;18.10;99.90;;;;;;4935356;29;20528;-71
2021/09/18 13:58:59;;;;;;;3.33;1.70;;;18.10;99.90;;;;;;4955292;28;20533;-70
2021/09/18 14:01:26;;;;;;;1.17;1.17;;;18.00;99.90;;;;;;4936153;28;20501;-72
2021/09/18 14:03:53;;;;;;;1.77;1.50;;;18.00;99.90;;;;;;4958239;28;20475;-71
2021/09/18 14:06:21;;;;;;;1.67;1.67;;;18.10;99.90;;;;;;4952637;28;20465;-71
2021/09/18 14:08:48;;;;;;;1.20;1.20;;;18.00;99.90;;;;;;4945946;28;20473;-71
2021/09/18 14:11:15;;;;;;;1.00;1.00;;;18.10;99.90;;;;;;4945377;28;20491;-70
2021/09/18 14:13:41;;;;;;;1.60;1.60;;;18.10;99.90;;;;;;4956505;28;20854;-70
2021/09/18 14:16:08;;;;;;;1.20;1.20;;;18.00;99.90;;;;;;4958454;28;20531;-71
2021/09/18 14:18:35;;;;;;;1.03;1.03;;;18.00;99.90;;;;;;4955023;28;20484;-71
2021/09/18 14:21:01;;;;;;;1.20;1.20;;;17.80;99.90;;;;;;4957939;28;20492;-71
2021/09/18 14:23:29;;;;;;;1.30;1.30;;;17.90;99.90;;;;;;4956352;28;20469;-71
2021/09/18 14:25:56;;;;;;;1.10;1.10;;;17.80;99.90;;;;;;4956688;28;20475;-71
2021/09/18 14:28:24;;;;;;;1.47;1.37;;;17.80;99.90;;;;;;4956534;28;20957;-70
2021/09/18 14:30:51;;;;;;;1.37;1.27;;;17.80;99.90;;;;;;4956067;28;20559;-71
2021/09/18 14:33:18;;;;;;;1.20;1.20;;;17.90;99.90;;;;;;4951761;28;20838;-70
2021/09/18 14:35:45;;;;;;;1.30;1.30;;;17.90;99.90;;;;;;4945461;28;20468;-70
2021/09/18 14:38:12;;;;;;;1.40;1.30;;;18.10;99.90;;;;;;4953641;28;20978;-71
2021/09/18 14:40:42;;;;;;;1.40;1.40;;;18.20;99.90;;;;;;4937360;28;20526;-70
2021/09/18 14:43:09;;;;;;;2.40;1.37;;;18.20;99.90;;;;;;4948905;28;20527;-71
2021/09/18 14:45:36;;;;;;;2.97;1.67;;;18.20;99.90;;;;;;4957595;28;20495;-72
2021/09/18 14:48:02;;;;;;;1.60;1.60;;;18.30;99.90;;;;;;4954946;28;20460;-71
2021/09/18 14:50:30;;;;;;;1.70;1.60;;;18.20;99.90;;;;;;4957235;28;20477;-71
2021/09/18 14:52:57;;;;;;;1.30;1.30;;;18.10;99.90;;;;;;4956266;28;20560;-71
2021/09/18 14:55:23;;;;;;;1.30;1.20;;;18.00;99.90;;;;;;4954802;28;20558;-70
2021/09/18 14:57:51;;;;;;;1.20;1.20;;;17.90;99.90;;;;;;4954438;28;20873;-71
2021/09/18 15:00:18;;;;;;;1.67;1.67;;;17.90;99.90;;;;;;4955970;28;20475;-71
2021/09/18 15:02:45;;;;;;;1.63;1.53;;;17.90;99.90;;;;;;4955845;28;21024;-70
2021/09/18 15:05:12;;;;;;;1.30;1.20;;;17.90;99.90;;;;;;4955091;28;20472;-69
2021/09/18 15:07:39;;;;;;;2.30;1.90;;;17.80;99.90;;;;;;4955050;28;20457;-68
2021/09/18 15:10:06;;;;;;;2.20;1.30;;;17.80;99.90;;;;;;4955619;28;20608;-69
2021/09/18 15:12:33;;;;;;;1.60;1.43;;;17.80;99.90;;;;;;4954507;28;20494;-70
2021/09/18 15:15:01;;;;;;;1.73;1.63;;;17.80;99.90;;;;;;4953386;28;21047;-69
2021/09/18 15:17:28;;;;;;;1.80;1.70;;;17.70;99.90;;;;;;4954260;28;20477;-69
2021/09/18 15:19:55;;;;;;;1.17;1.07;;;17.70;99.90;;;;;;4953561;28;20504;-70
2021/09/18 15:22:21;;;;;;;1.60;1.60;;;17.70;99.90;;;;;;4952319;28;20967;-69
2021/09/18 15:24:48;;;;;;;1.97;1.80;;;17.70;99.90;;;;;;4958952;28;20542;-69
2021/09/18 15:27:15;;;;;;;2.30;1.50;;;17.60;99.90;;;;;;4967802;28;20464;-69
2021/09/18 15:29:41;;;;;;;1.50;1.50;;;17.60;99.90;;;;;;4954542;28;20480;-69
2021/09/18 15:32:09;;;;;;;1.63;1.63;;;17.70;99.90;;;;;;4956908;28;20488;-70
2021/09/18 15:34:36;;;;;;;2.20;1.20;;;17.70;99.90;;;;;;4957017;28;20576;-69
2021/09/18 15:37:02;;;;;;;1.57;1.50;;;17.60;99.90;;;;;;4943618;28;20462;-70
2021/09/18 15:39:29;;;;;;;1.47;1.47;;;17.60;99.90;;;;;;4936205;29;20474;-69
2021/09/18 15:41:56;;;;;;;2.00;1.90;;;17.60;99.90;;;;;;4944565;28;20555;-69
2021/09/18 15:44:23;;;;;;;1.80;1.80;;;17.60;99.90;;;;;;4957214;28;20464;-70
2021/09/18 15:46:50;;;;;;;1.70;1.60;;;17.60;99.90;;;;;;4958058;28;20786;-70
2021/09/18 15:49:19;;;;;;;1.17;1.17;;;17.60;99.90;;;;;;4959448;28;20477;-69
2021/09/18 15:51:47;;;;;;;1.57;1.57;;;17.60;99.90;;;;;;4952684;28;20480;-69
2021/09/18 15:54:13;;;;;;;1.90;1.63;;;17.60;99.90;;;;;;4954748;28;20476;-69
2021/09/18 15:56:40;;;;;;;1.47;1.47;;;17.50;99.90;;;;;;4944930;29;20465;-68
2021/09/18 15:59:07;;;;;;;1.87;1.80;;;17.50;99.90;;;;;;4954113;28;20867;-69
2021/09/18 16:01:34;;;;;;;3.03;1.70;;;17.50;99.90;;;;;;4954626;28;20640;-69
2021/09/18 16:04:00;;;;;;;1.57;1.50;;;17.50;99.90;;;;;;4955357;28;20461;-69
2021/09/18 16:06:28;;;;;;;1.90;1.90;;;17.50;99.90;;;;;;4955188;28;20465;-69
2021/09/18 16:08:55;;;;;;;1.80;1.70;;;17.40;99.90;;;;;;4947954;28;20839;-69
2021/09/18 16:11:22;;;;;;;1.83;1.83;;;17.40;99.90;;;;;;4938838;28;20560;-69
2021/09/18 16:13:49;;;;;;;1.73;1.63;;;17.40;99.90;;;;;;4953212;28;20469;-69
2021/09/18 16:16:15;;;;;;;1.80;1.77;;;17.40;99.90;;;;;;4958988;28;20921;-69
2021/09/18 16:18:42;;;;;;;2.00;1.93;;;17.40;99.90;;;;;;4954662;28;20472;-68
2021/09/18 16:21:09;;;;;;;1.67;1.67;;;17.30;99.90;;;;;;4954756;28;20851;-69
2021/09/18 16:23:37;;;;;;;2.03;1.93;;;17.30;99.90;;;;;;4954464;28;20468;-69
2021/09/18 16:26:04;;;;;;;2.80;2.60;;;17.30;99.90;;;;;;4952361;28;20481;-71
2021/09/18 16:28:31;;;;;;;2.10;2.00;;;17.30;99.90;;;;;;4953912;28;20512;-68
2021/09/18 16:30:58;;;;;;;2.40;2.20;;;17.20;99.90;;;;;;4953352;28;20480;-69
2021/09/18 16:33:25;;;;;;;2.17;2.17;;;17.20;99.90;;;;;;4952993;28;20981;-68
2021/09/18 16:35:51;;;;;;;2.00;1.83;;;17.20;99.90;;;;;;4954071;28;20488;-68
2021/09/18 16:38:18;;;;;;;2.10;2.00;;;17.20;99.90;;;;;;4954106;28;20469;-69
2021/09/18 16:40:46;;;;;;;2.50;2.30;;;17.10;99.90;;;;;;4953787;28;20493;-69
2021/09/18 16:43:13;;;;;;;1.80;1.70;;;17.10;99.90;;;;;;4957788;28;20459;-68
2021/09/18 16:45:40;;;;;;;2.53;2.37;;;17.10;99.90;;;;;;4972706;28;20467;-69
2021/09/18 16:48:07;;;;;;;1.93;1.83;;;17.10;99.90;;;;;;4954398;28;20464;-68
2021/09/18 16:50:33;;;;;;;2.30;2.20;;;17.10;99.90;;;;;;4957594;28;20480;-69
2021/09/18 16:53:01;;;;;;;3.23;2.03;;;17.00;99.90;;;;;;4954968;28;20476;-69